Terminal Aerodrome Forecast
Issued by NWS

Home | Current Version | Previous Version | Text Only | Print | Product List | Glossary On
Versions: 1 2 3 4 5 6 7 8 9 10 11 12 13 14 15 16 17 18 19 20 21 22 23 24 25 26 27 28 29 30 31 32 33 34 35 36 37 38 39 40 41 42 43 44 45 46 47 48 49 50
682
FTUS42 KGSP 172335
TAFHKY
TAF
KHKY 172335Z 1800/1824 22009KT P6SM VCSH OVC050
     FM180500 24010KT 5SM BR VCSH OVC040
     FM181000 28008KT 4SM BR BKN030
     FM181200 29008KT P6SM BKN030
     FM181400 29008KT P6SM SCT120 BKN250
     FM182200 33006KT P6SM FEW250=

USA.gov is the U.S. government's official web portal to all federal, state and local government web resources and services.